Turandot — 9V9825 — position and weather

sailwx.info

Track history (hours):
 
Tides and Currents Weather Stations Pressure Air Temp Water Temp Dewpoint Dewpoint Depression Visibility Wind Speed Wind Dir Waves Ship Positions

Turandot

Last reported at 2018-Jan-11 16:59 UTC. Time now 2018-Jan-19 01:47 UTC.
Position N 34°14' E 138°22'.

Length 199 m; draft 8.1 m.

Type: Cargo ship. MMSI: 566441000.

Date/timePositionNaut miles runAvg speedWind from/ knotsBaromVisibWave heightAir tempDewpointWater temp
2018-Jan-11 16:59N 34°14' E 138°22'915.3
2018-Jan-11 16:24N 34°19' E 138°31'2214.4
2018-Jan-11 14:55N 34°27' E 138°55'613.9
2018-Jan-11 14:30N 34°29' E 139°02'713.7
2018-Jan-11 13:58N 34°32' E 139°10'713.4
2018-Jan-11 13:29N 34°35' E 139°17'712.6
2018-Jan-11 12:56N 34°37' E 139°25'612.4
2018-Jan-11 12:29N 34°39' E 139°31'816.1
2018-Jan-11 12:00N 34°46' E 139°35'816.3
2018-Jan-11 11:30N 34°54' E 139°39'816.8
2018-Jan-11 11:00N 35°02' E 139°42'816.3
2018-Jan-11 10:30N 35°09' E 139°45'510.4
2018-Jan-11 10:01N 35°15' E 139°46'612.8
2018-Jan-11 09:31N 35°20' E 139°42'611.8
2018-Jan-11 09:01N 35°26' E 139°44'1 1.5
2018-Jan-11 08:28N 35°26' E 139°44'0 0.2
2018-Jan-11 07:58N 35°27' E 139°44'0 0.0
2018-Jan-11 07:28N 35°26' E 139°44'0 0.1
2018-Jan-11 06:52N 35°26' E 139°44'0 0.0
2018-Jan-11 06:28N 35°26' E 139°44'0 0.2
2018-Jan-11 06:00N 35°26' E 139°44'0 0.5
2018-Jan-11 05:30N 35°27' E 139°43'2 4.0
2018-Jan-11 05:00N 35°28' E 139°41'0 0.2
2018-Jan-11 04:30N 35°28' E 139°41'0 0.0
2018-Jan-11 04:00N 35°28' E 139°41'0 0.0
2018-Jan-11 03:28N 35°28' E 139°41'0 0.0
2018-Jan-11 02:58N 35°28' E 139°41'0 0.0
2018-Jan-11 02:28N 35°28' E 139°41'0 0.0
2018-Jan-11 01:58N 35°28' E 139°41'0 0.0
2018-Jan-11 01:28N 35°28' E 139°41'0 0.0
2018-Jan-11 00:58N 35°28' E 139°41'0 0.0
2018-Jan-11 00:28N 35°28' E 139°41'0 0.0
2018-Jan-10 23:58N 35°28' E 139°41'0 0.0
2018-Jan-10 23:28N 35°28' E 139°41'0 0.0
2018-Jan-10 22:58N 35°28' E 139°41'0 0.0
2018-Jan-10 22:28N 35°28' E 139°41'0 0.4
2018-Jan-10 21:59N 35°28' E 139°42'2 5.0
2018-Jan-10 21:30N 35°26' E 139°44'1 1.1
2018-Jan-10 20:59N 35°26' E 139°45'0 0.0
2018-Jan-10 20:29N 35°26' E 139°45'0 0.1
2018-Jan-10 19:59N 35°26' E 139°45'0 0.1
2018-Jan-10 19:29N 35°26' E 139°45'0 0.0
2018-Jan-10 18:59N 35°26' E 139°45'0 0.0
2018-Jan-10 18:29N 35°26' E 139°45'0 0.0
2018-Jan-10 17:59N 35°26' E 139°45'0 0.1
2018-Jan-10 17:29N 35°26' E 139°45'0 0.2
2018-Jan-10 16:59N 35°26' E 139°45'0 0.1
2018-Jan-10 16:29N 35°26' E 139°45'0 0.1
2018-Jan-10 15:59N 35°26' E 139°45'0 0.2
2018-Jan-10 15:28N 35°26' E 139°45'0 0.1
2018-Jan-10 14:59N 35°26' E 139°45'0 0.1
2018-Jan-10 14:28N 35°26' E 139°45'0 0.2
2018-Jan-10 13:58N 35°26' E 139°45'0 0.1
2018-Jan-10 13:28N 35°26' E 139°45'0 0.1
2018-Jan-10 12:58N 35°26' E 139°45'0 0.1
2018-Jan-10 12:28N 35°26' E 139°45'0 0.0
2018-Jan-10 11:58N 35°26' E 139°45'0 0.0
2018-Jan-10 11:25N 35°26' E 139°45'0 0.0
2018-Jan-10 10:58N 35°26' E 139°45'0 0.1
2018-Jan-10 10:30N 35°26' E 139°45'1 2.8
2018-Jan-10 10:00N 35°25' E 139°43'4 8.4
2018-Jan-10 09:31N 35°21' E 139°42'4 8.2
2018-Jan-10 09:00N 35°17' E 139°41'0 0.1
2018-Jan-10 08:31N 35°17' E 139°41'0 0.0
2018-Jan-10 08:01N 35°17' E 139°41'0 0.0
2018-Jan-10 07:30N 35°17' E 139°41'0 0.0
2018-Jan-10 07:00N 35°17' E 139°41'0 0.0
2018-Jan-10 06:30N 35°17' E 139°41'0 0.0
2018-Jan-10 06:00N 35°17' E 139°41'0 0.0
2018-Jan-10 05:31N 35°17' E 139°41'0 0.0
2018-Jan-10 05:01N 35°17' E 139°41'0 0.0
2018-Jan-10 04:30N 35°17' E 139°41'0 0.0
2018-Jan-10 04:01N 35°17' E 139°41'0 0.0
2018-Jan-10 03:31N 35°17' E 139°41'0 0.0
2018-Jan-10 03:00N 35°17' E 139°41'0 0.0
2018-Jan-10 02:31N 35°17' E 139°41'0 0.0
2018-Jan-10 02:01N 35°17' E 139°41'0 0.0
2018-Jan-10 01:31N 35°17' E 139°41'0 0.0
2018-Jan-10 01:01N 35°17' E 139°41'0 0.1
2018-Jan-10 00:30N 35°17' E 139°41'2 4.7
2018-Jan-10 00:00N 35°19' E 139°43'4 8.5
2018-Jan-09 23:31N 35°16' E 139°47'611.3
2018-Jan-09 23:01N 35°10' E 139°47'4 7.7
2018-Jan-09 22:30N 35°06' E 139°45'4 8.9
2018-Jan-09 22:01N 35°02' E 139°43'611.5
2018-Jan-09 21:30N 34°57' E 139°41'612.3
2018-Jan-09 21:00N 34°51' E 139°39'713.0
2018-Jan-09 20:27N 34°44' E 139°37'614.1
2018-Jan-09 20:00N 34°38' E 139°33'917.1
2018-Jan-09 19:30N 34°36' E 139°23'918.6
2018-Jan-09 19:01N 34°34' E 139°12'917.6
2018-Jan-09 18:30N 34°31' E 139°02'1117.8
2018-Jan-09 17:53N 34°26' E 138°50'718.6
2018-Jan-09 17:30N 34°23' E 138°42'1018.0
2018-Jan-09 16:58N 34°19' E 138°32'817.1
2018-Jan-09 16:29N 34°16' E 138°23'816.5
2018-Jan-09 16:00N 34°12' E 138°14'815.9
2018-Jan-09 15:30N 34°09' E 138°05'815.7
2018-Jan-09 15:00N 34°06' E 137°57'29614.8
2018-Jan-08 18:56N 33°10' E 132°08'917.1
2018-Jan-08 18:27N 33°17' E 132°01'716.4
2018-Jan-08 18:00N 33°23' E 131°56'816.7
2018-Jan-08 17:30N 33°30' E 131°52'816.5
2018-Jan-08 17:00N 33°38' E 131°47'816.3
2018-Jan-08 16:30N 33°45' E 131°44'816.4
2018-Jan-08 16:00N 33°47' E 131°34'816.3
2018-Jan-08 15:31N 33°49' E 131°25'816.3
2018-Jan-08 15:00N 33°50' E 131°15'815.8
2018-Jan-08 14:30N 33°54' E 131°07'612.5
2018-Jan-08 14:00N 33°58' E 131°01'611.3
2018-Jan-08 13:31N 33°55' E 130°56'5 9.7
2018-Jan-08 13:00N 33°59' E 130°53'4 8.8
2018-Jan-08 12:30N 34°03' E 130°50'510.5
2018-Jan-08 12:01N 34°03' E 130°43'815.4
2018-Jan-08 11:31N 34°02' E 130°34'816.7
2018-Jan-08 11:01N 34°01' E 130°24'816.4
2018-Jan-08 10:31N 34°00' E 130°14'816.6
2018-Jan-08 10:01N 33°60' E 130°04'816.4
2018-Jan-08 09:30N 33°59' E 129°54'  
2018-Jan-03 13:54N 41°19' E 140°13'613.2
2018-Jan-03 13:27N 41°22' E 140°19'613.9
2018-Jan-03 13:00N 41°26' E 140°26'714.3
2018-Jan-03 12:30N 41°29' E 140°34'815.7
2018-Jan-03 12:00N 41°34' E 140°43'815.4
2018-Jan-03 11:30N 41°38' E 140°52'714.7
2018-Jan-03 11:00N 41°39' E 141°01'815.1
2018-Jan-03 10:30N 41°39' E 141°11'714.7
2018-Jan-03 10:00N 41°39' E 141°21'815.2
2018-Jan-03 09:30N 41°39' E 141°32'  
Track history (hours):
 
Tides and Currents Weather Stations Pressure Air Temp Water Temp Dewpoint Dewpoint Depression Visibility Wind Speed Wind Dir Waves Ship Positions

Turandot

Last reported at 2018-Jan-11 16:59 UTC. Time now 2018-Jan-19 01:47 UTC.
Position N 34°14' E 138°22'.

Length 199 m; draft 8.1 m.

Type: Cargo ship. MMSI: 566441000.

Date/timePositionNaut miles runAvg speedWind from/ knotsBaromVisibWave heightAir tempDewpointWater temp
2018-Jan-11 16:59N 34°14' E 138°22'915.3
2018-Jan-11 16:24N 34°19' E 138°31'2214.4
2018-Jan-11 14:55N 34°27' E 138°55'613.9
2018-Jan-11 14:30N 34°29' E 139°02'713.7
2018-Jan-11 13:58N 34°32' E 139°10'713.4
2018-Jan-11 13:29N 34°35' E 139°17'712.6
2018-Jan-11 12:56N 34°37' E 139°25'612.4
2018-Jan-11 12:29N 34°39' E 139°31'816.1
2018-Jan-11 12:00N 34°46' E 139°35'816.3
2018-Jan-11 11:30N 34°54' E 139°39'816.8
2018-Jan-11 11:00N 35°02' E 139°42'816.3
2018-Jan-11 10:30N 35°09' E 139°45'510.4
2018-Jan-11 10:01N 35°15' E 139°46'612.8
2018-Jan-11 09:31N 35°20' E 139°42'611.8
2018-Jan-11 09:01N 35°26' E 139°44'1 1.5
2018-Jan-11 08:28N 35°26' E 139°44'0 0.2
2018-Jan-11 07:58N 35°27' E 139°44'0 0.0
2018-Jan-11 07:28N 35°26' E 139°44'0 0.1
2018-Jan-11 06:52N 35°26' E 139°44'0 0.0
2018-Jan-11 06:28N 35°26' E 139°44'0 0.2
2018-Jan-11 06:00N 35°26' E 139°44'0 0.5
2018-Jan-11 05:30N 35°27' E 139°43'2 4.0
2018-Jan-11 05:00N 35°28' E 139°41'0 0.2
2018-Jan-11 04:30N 35°28' E 139°41'0 0.0
2018-Jan-11 04:00N 35°28' E 139°41'0 0.0
2018-Jan-11 03:28N 35°28' E 139°41'0 0.0
2018-Jan-11 02:58N 35°28' E 139°41'0 0.0
2018-Jan-11 02:28N 35°28' E 139°41'0 0.0
2018-Jan-11 01:58N 35°28' E 139°41'0 0.0
2018-Jan-11 01:28N 35°28' E 139°41'0 0.0
2018-Jan-11 00:58N 35°28' E 139°41'0 0.0
2018-Jan-11 00:28N 35°28' E 139°41'0 0.0
2018-Jan-10 23:58N 35°28' E 139°41'0 0.0
2018-Jan-10 23:28N 35°28' E 139°41'0 0.0
2018-Jan-10 22:58N 35°28' E 139°41'0 0.0
2018-Jan-10 22:28N 35°28' E 139°41'0 0.4
2018-Jan-10 21:59N 35°28' E 139°42'2 5.0
2018-Jan-10 21:30N 35°26' E 139°44'1 1.1
2018-Jan-10 20:59N 35°26' E 139°45'0 0.0
2018-Jan-10 20:29N 35°26' E 139°45'0 0.1
2018-Jan-10 19:59N 35°26' E 139°45'0 0.1
2018-Jan-10 19:29N 35°26' E 139°45'0 0.0
2018-Jan-10 18:59N 35°26' E 139°45'0 0.0
2018-Jan-10 18:29N 35°26' E 139°45'0 0.0
2018-Jan-10 17:59N 35°26' E 139°45'0 0.1
2018-Jan-10 17:29N 35°26' E 139°45'0 0.2
2018-Jan-10 16:59N 35°26' E 139°45'0 0.1
2018-Jan-10 16:29N 35°26' E 139°45'0 0.1
2018-Jan-10 15:59N 35°26' E 139°45'0 0.2
2018-Jan-10 15:28N 35°26' E 139°45'0 0.1
2018-Jan-10 14:59N 35°26' E 139°45'0 0.1
2018-Jan-10 14:28N 35°26' E 139°45'0 0.2
2018-Jan-10 13:58N 35°26' E 139°45'0 0.1
2018-Jan-10 13:28N 35°26' E 139°45'0 0.1
2018-Jan-10 12:58N 35°26' E 139°45'0 0.1
2018-Jan-10 12:28N 35°26' E 139°45'0 0.0
2018-Jan-10 11:58N 35°26' E 139°45'0 0.0
2018-Jan-10 11:25N 35°26' E 139°45'0 0.0
2018-Jan-10 10:58N 35°26' E 139°45'0 0.1
2018-Jan-10 10:30N 35°26' E 139°45'1 2.8
2018-Jan-10 10:00N 35°25' E 139°43'4 8.4
2018-Jan-10 09:31N 35°21' E 139°42'4 8.2
2018-Jan-10 09:00N 35°17' E 139°41'0 0.1
2018-Jan-10 08:31N 35°17' E 139°41'0 0.0
2018-Jan-10 08:01N 35°17' E 139°41'0 0.0
2018-Jan-10 07:30N 35°17' E 139°41'0 0.0
2018-Jan-10 07:00N 35°17' E 139°41'0 0.0
2018-Jan-10 06:30N 35°17' E 139°41'0 0.0
2018-Jan-10 06:00N 35°17' E 139°41'0 0.0
2018-Jan-10 05:31N 35°17' E 139°41'0 0.0
2018-Jan-10 05:01N 35°17' E 139°41'0 0.0
2018-Jan-10 04:30N 35°17' E 139°41'0 0.0
2018-Jan-10 04:01N 35°17' E 139°41'0 0.0
2018-Jan-10 03:31N 35°17' E 139°41'0 0.0
2018-Jan-10 03:00N 35°17' E 139°41'0 0.0
2018-Jan-10 02:31N 35°17' E 139°41'0 0.0
2018-Jan-10 02:01N 35°17' E 139°41'0 0.0
2018-Jan-10 01:31N 35°17' E 139°41'0 0.0
2018-Jan-10 01:01N 35°17' E 139°41'0 0.1
2018-Jan-10 00:30N 35°17' E 139°41'2 4.7
2018-Jan-10 00:00N 35°19' E 139°43'4 8.5
2018-Jan-09 23:31N 35°16' E 139°47'611.3
2018-Jan-09 23:01N 35°10' E 139°47'4 7.7
2018-Jan-09 22:30N 35°06' E 139°45'4 8.9
2018-Jan-09 22:01N 35°02' E 139°43'611.5
2018-Jan-09 21:30N 34°57' E 139°41'612.3
2018-Jan-09 21:00N 34°51' E 139°39'713.0
2018-Jan-09 20:27N 34°44' E 139°37'614.1
2018-Jan-09 20:00N 34°38' E 139°33'917.1
2018-Jan-09 19:30N 34°36' E 139°23'918.6
2018-Jan-09 19:01N 34°34' E 139°12'917.6
2018-Jan-09 18:30N 34°31' E 139°02'1117.8
2018-Jan-09 17:53N 34°26' E 138°50'718.6
2018-Jan-09 17:30N 34°23' E 138°42'1018.0
2018-Jan-09 16:58N 34°19' E 138°32'817.1
2018-Jan-09 16:29N 34°16' E 138°23'816.5
2018-Jan-09 16:00N 34°12' E 138°14'815.9
2018-Jan-09 15:30N 34°09' E 138°05'815.7
2018-Jan-09 15:00N 34°06' E 137°57'29614.8
2018-Jan-08 18:56N 33°10' E 132°08'917.1
2018-Jan-08 18:27N 33°17' E 132°01'716.4
2018-Jan-08 18:00N 33°23' E 131°56'816.7
2018-Jan-08 17:30N 33°30' E 131°52'816.5
2018-Jan-08 17:00N 33°38' E 131°47'816.3
2018-Jan-08 16:30N 33°45' E 131°44'816.4
2018-Jan-08 16:00N 33°47' E 131°34'816.3
2018-Jan-08 15:31N 33°49' E 131°25'816.3
2018-Jan-08 15:00N 33°50' E 131°15'815.8
2018-Jan-08 14:30N 33°54' E 131°07'612.5
2018-Jan-08 14:00N 33°58' E 131°01'611.3
2018-Jan-08 13:31N 33°55' E 130°56'5 9.7
2018-Jan-08 13:00N 33°59' E 130°53'4 8.8
2018-Jan-08 12:30N 34°03' E 130°50'510.5
2018-Jan-08 12:01N 34°03' E 130°43'815.4
2018-Jan-08 11:31N 34°02' E 130°34'816.7
2018-Jan-08 11:01N 34°01' E 130°24'816.4
2018-Jan-08 10:31N 34°00' E 130°14'816.6
2018-Jan-08 10:01N 33°60' E 130°04'816.4
2018-Jan-08 09:30N 33°59' E 129°54'  
2018-Jan-03 13:54N 41°19' E 140°13'613.2
2018-Jan-03 13:27N 41°22' E 140°19'613.9
2018-Jan-03 13:00N 41°26' E 140°26'714.3
2018-Jan-03 12:30N 41°29' E 140°34'815.7
2018-Jan-03 12:00N 41°34' E 140°43'815.4
2018-Jan-03 11:30N 41°38' E 140°52'714.7
2018-Jan-03 11:00N 41°39' E 141°01'815.1
2018-Jan-03 10:30N 41°39' E 141°11'714.7
2018-Jan-03 10:00N 41°39' E 141°21'815.2
2018-Jan-03 09:30N 41°39' E 141°32'  

Dump ship's entire track history